sensor_id;sensor_type;location;lat;lon;timestamp;temperature;humidity
67942;SHT31;54731;42.600;23.476;2023-05-10T00:00:34;8.69;81.17
67942;SHT31;54731;42.600;23.476;2023-05-10T00:03:00;8.70;81.60
67942;SHT31;54731;42.600;23.476;2023-05-10T00:05:25;8.79;81.14
67942;SHT31;54731;42.600;23.476;2023-05-10T00:07:50;8.77;80.90
67942;SHT31;54731;42.600;23.476;2023-05-10T00:10:16;8.63;81.40
67942;SHT31;54731;42.600;23.476;2023-05-10T00:12:42;8.60;81.64
67942;SHT31;54731;42.600;23.476;2023-05-10T00:15:08;8.67;81.42
67942;SHT31;54731;42.600;23.476;2023-05-10T00:17:33;8.67;81.34
67942;SHT31;54731;42.600;23.476;2023-05-10T00:19:59;8.70;80.77
67942;SHT31;54731;42.600;23.476;2023-05-10T00:22:24;8.77;80.51
67942;SHT31;54731;42.600;23.476;2023-05-10T00:24:49;8.59;80.95
67942;SHT31;54731;42.600;23.476;2023-05-10T00:27:14;8.57;81.00
67942;SHT31;54731;42.600;23.476;2023-05-10T00:29:40;8.50;80.69
67942;SHT31;54731;42.600;23.476;2023-05-10T00:32:05;8.48;80.81
67942;SHT31;54731;42.600;23.476;2023-05-10T00:34:31;8.49;81.34
67942;SHT31;54731;42.600;23.476;2023-05-10T00:36:56;8.56;81.29
67942;SHT31;54731;42.600;23.476;2023-05-10T00:39:22;8.46;81.83
67942;SHT31;54731;42.600;23.476;2023-05-10T00:41:47;8.55;81.76
67942;SHT31;54731;42.600;23.476;2023-05-10T00:44:12;8.56;81.70
67942;SHT31;54731;42.600;23.476;2023-05-10T00:46:37;8.57;81.55
67942;SHT31;54731;42.600;23.476;2023-05-10T00:49:03;8.52;81.43
67942;SHT31;54731;42.600;23.476;2023-05-10T00:51:28;8.50;81.46
67942;SHT31;54731;42.600;23.476;2023-05-10T00:53:54;8.55;81.24
67942;SHT31;54731;42.600;23.476;2023-05-10T00:56:20;8.43;81.16
67942;SHT31;54731;42.600;23.476;2023-05-10T00:58:45;8.32;81.41
67942;SHT31;54731;42.600;23.476;2023-05-10T01:01:11;8.36;81.58
67942;SHT31;54731;42.600;23.476;2023-05-10T01:03:37;8.36;80.96
67942;SHT31;54731;42.600;23.476;2023-05-10T01:06:02;8.39;81.04
67942;SHT31;54731;42.600;23.476;2023-05-10T01:08:28;8.28;81.51
67942;SHT31;54731;42.600;23.476;2023-05-10T01:10:54;8.22;82.10
67942;SHT31;54731;42.600;23.476;2023-05-10T01:13:40;8.19;82.12
67942;SHT31;54731;42.600;23.476;2023-05-10T01:16:07;8.16;82.47
67942;SHT31;54731;42.600;23.476;2023-05-10T01:18:40;8.09;82.56
67942;SHT31;54731;42.600;23.476;2023-05-10T01:21:38;8.15;82.50
67942;SHT31;54731;42.600;23.476;2023-05-10T01:24:14;8.05;82.05
67942;SHT31;54731;42.600;23.476;2023-05-10T01:32:57;7.99;80.99
67942;SHT31;54731;42.600;23.476;2023-05-10T01:36:00;8.02;80.97
67942;SHT31;54731;42.600;23.476;2023-05-10T01:38:47;8.03;81.00
67942;SHT31;54731;42.600;23.476;2023-05-10T01:41:30;7.97;80.93
67942;SHT31;54731;42.600;23.476;2023-05-10T01:46:39;7.90;80.68
67942;SHT31;54731;42.600;23.476;2023-05-10T01:49:14;7.85;80.30
67942;SHT31;54731;42.600;23.476;2023-05-10T01:51:46;7.75;80.68
67942;SHT31;54731;42.600;23.476;2023-05-10T01:54:13;7.77;80.98
67942;SHT31;54731;42.600;23.476;2023-05-10T01:56:40;7.73;80.28
67942;SHT31;54731;42.600;23.476;2023-05-10T01:59:11;7.64;80.37
67942;SHT31;54731;42.600;23.476;2023-05-10T02:01:37;7.54;80.61
67942;SHT31;54731;42.600;23.476;2023-05-10T02:04:04;7.42;80.59
67942;SHT31;54731;42.600;23.476;2023-05-10T02:06:31;7.22;81.00
67942;SHT31;54731;42.600;23.476;2023-05-10T02:08:57;7.17;80.02
67942;SHT31;54731;42.600;23.476;2023-05-10T02:11:22;7.12;79.83
67942;SHT31;54731;42.600;23.476;2023-05-10T02:13:50;6.97;80.19
67942;SHT31;54731;42.600;23.476;2023-05-10T02:16:16;6.96;78.85
67942;SHT31;54731;42.600;23.476;2023-05-10T02:18:43;6.96;78.50
67942;SHT31;54731;42.600;23.476;2023-05-10T02:21:10;6.88;79.12
67942;SHT31;54731;42.600;23.476;2023-05-10T02:23:37;6.78;78.92
67942;SHT31;54731;42.600;23.476;2023-05-10T02:26:03;6.67;78.94
67942;SHT31;54731;42.600;23.476;2023-05-10T02:28:30;6.65;79.16
67942;SHT31;54731;42.600;23.476;2023-05-10T02:30:57;6.59;79.47
67942;SHT31;54731;42.600;23.476;2023-05-10T02:33:23;6.55;79.76
67942;SHT31;54731;42.600;23.476;2023-05-10T02:35:50;6.45;79.53
67942;SHT31;54731;42.600;23.476;2023-05-10T02:38:16;6.42;80.40
67942;SHT31;54731;42.600;23.476;2023-05-10T02:40:43;6.42;79.89
67942;SHT31;54731;42.600;23.476;2023-05-10T02:43:12;6.48;79.21
67942;SHT31;54731;42.600;23.476;2023-05-10T02:45:38;6.38;79.35
67942;SHT31;54731;42.600;23.476;2023-05-10T02:48:03;6.46;79.05
67942;SHT31;54731;42.600;23.476;2023-05-10T02:50:30;6.38;78.86
67942;SHT31;54731;42.600;23.476;2023-05-10T02:53:00;6.21;80.17
67942;SHT31;54731;42.600;23.476;2023-05-10T02:55:29;6.20;79.93
67942;SHT31;54731;42.600;23.476;2023-05-10T02:58:01;6.24;80.36
67942;SHT31;54731;42.600;23.476;2023-05-10T03:00:26;6.21;78.52
67942;SHT31;54731;42.600;23.476;2023-05-10T03:02:52;6.25;79.62
67942;SHT31;54731;42.600;23.476;2023-05-10T03:05:18;6.22;80.17
67942;SHT31;54731;42.600;23.476;2023-05-10T03:07:44;6.27;80.39
67942;SHT31;54731;42.600;23.476;2023-05-10T03:10:10;6.22;79.67
67942;SHT31;54731;42.600;23.476;2023-05-10T03:15:22;6.17;80.40
67942;SHT31;54731;42.600;23.476;2023-05-10T03:18:02;6.22;80.43
67942;SHT31;54731;42.600;23.476;2023-05-10T03:20:50;6.13;79.54
67942;SHT31;54731;42.600;23.476;2023-05-10T03:25:43;6.13;79.86
67942;SHT31;54731;42.600;23.476;2023-05-10T03:28:08;6.16;78.93
67942;SHT31;54731;42.600;23.476;2023-05-10T03:30:34;6.14;79.25
67942;SHT31;54731;42.600;23.476;2023-05-10T03:33:06;6.13;79.28
67942;SHT31;54731;42.600;23.476;2023-05-10T03:35:31;6.08;80.30
67942;SHT31;54731;42.600;23.476;2023-05-10T03:37:57;6.03;80.12
67942;SHT31;54731;42.600;23.476;2023-05-10T03:40:23;5.94;80.22
67942;SHT31;54731;42.600;23.476;2023-05-10T03:42:48;5.97;80.40
67942;SHT31;54731;42.600;23.476;2023-05-10T03:45:13;6.04;79.78
67942;SHT31;54731;42.600;23.476;2023-05-10T03:47:39;6.08;80.34
67942;SHT31;54731;42.600;23.476;2023-05-10T03:50:04;6.08;80.32
67942;SHT31;54731;42.600;23.476;2023-05-10T03:52:30;6.10;80.14
67942;SHT31;54731;42.600;23.476;2023-05-10T03:54:55;6.14;80.20
67942;SHT31;54731;42.600;23.476;2023-05-10T03:57:20;6.17;80.85
67942;SHT31;54731;42.600;23.476;2023-05-10T03:59:46;6.22;80.33
67942;SHT31;54731;42.600;23.476;2023-05-10T04:02:11;6.18;79.75
67942;SHT31;54731;42.600;23.476;2023-05-10T04:04:36;6.20;79.73
67942;SHT31;54731;42.600;23.476;2023-05-10T04:07:02;6.21;79.46
67942;SHT31;54731;42.600;23.476;2023-05-10T04:09:27;6.28;79.81
67942;SHT31;54731;42.600;23.476;2023-05-10T04:11:53;6.30;79.89
67942;SHT31;54731;42.600;23.476;2023-05-10T04:14:18;6.31;80.19
67942;SHT31;54731;42.600;23.476;2023-05-10T04:16:43;6.35;80.40
67942;SHT31;54731;42.600;23.476;2023-05-10T04:19:08;6.35;79.44
67942;SHT31;54731;42.600;23.476;2023-05-10T04:21:34;6.34;80.14
67942;SHT31;54731;42.600;23.476;2023-05-10T04:23:59;6.41;80.57
67942;SHT31;54731;42.600;23.476;2023-05-10T04:26:25;6.45;80.85
67942;SHT31;54731;42.600;23.476;2023-05-10T04:28:50;6.48;80.34
67942;SHT31;54731;42.600;23.476;2023-05-10T04:31:15;6.52;79.97
67942;SHT31;54731;42.600;23.476;2023-05-10T04:33:40;6.61;79.37
67942;SHT31;54731;42.600;23.476;2023-05-10T04:36:06;6.68;79.30
67942;SHT31;54731;42.600;23.476;2023-05-10T04:38:31;6.64;78.80
67942;SHT31;54731;42.600;23.476;2023-05-10T04:41:07;6.59;79.28
67942;SHT31;54731;42.600;23.476;2023-05-10T04:43:33;6.71;79.35
67942;SHT31;54731;42.600;23.476;2023-05-10T04:45:58;6.68;78.90
67942;SHT31;54731;42.600;23.476;2023-05-10T04:48:24;6.67;79.51
67942;SHT31;54731;42.600;23.476;2023-05-10T04:50:49;6.67;78.77
67942;SHT31;54731;42.600;23.476;2023-05-10T04:53:14;6.73;79.26
67942;SHT31;54731;42.600;23.476;2023-05-10T04:55:40;6.85;80.04
67942;SHT31;54731;42.600;23.476;2023-05-10T04:58:05;6.92;78.45
67942;SHT31;54731;42.600;23.476;2023-05-10T05:00:30;6.91;78.52
67942;SHT31;54731;42.600;23.476;2023-05-10T05:02:56;6.91;79.37
67942;SHT31;54731;42.600;23.476;2023-05-10T05:05:21;6.99;79.72
67942;SHT31;54731;42.600;23.476;2023-05-10T05:07:46;7.00;79.10
67942;SHT31;54731;42.600;23.476;2023-05-10T05:10:12;7.00;79.01
67942;SHT31;54731;42.600;23.476;2023-05-10T05:12:37;7.03;79.41
67942;SHT31;54731;42.600;23.476;2023-05-10T05:15:02;7.10;79.14
67942;SHT31;54731;42.600;23.476;2023-05-10T05:17:29;7.17;79.20
67942;SHT31;54731;42.600;23.476;2023-05-10T05:19:55;7.19;78.88
67942;SHT31;54731;42.600;23.476;2023-05-10T05:22:20;7.22;78.92
67942;SHT31;54731;42.600;23.476;2023-05-10T05:24:45;7.26;78.79
67942;SHT31;54731;42.600;23.476;2023-05-10T05:27:11;7.24;78.96
67942;SHT31;54731;42.600;23.476;2023-05-10T05:29:36;7.27;79.35
67942;SHT31;54731;42.600;23.476;2023-05-10T05:32:01;7.24;78.73
67942;SHT31;54731;42.600;23.476;2023-05-10T05:34:26;7.24;79.55
67942;SHT31;54731;42.600;23.476;2023-05-10T05:36:52;7.23;79.72
67942;SHT31;54731;42.600;23.476;2023-05-10T05:39:17;7.23;79.62
67942;SHT31;54731;42.600;23.476;2023-05-10T05:41:43;7.31;79.00
67942;SHT31;54731;42.600;23.476;2023-05-10T05:44:08;7.34;78.75
67942;SHT31;54731;42.600;23.476;2023-05-10T05:46:33;7.38;78.84
67942;SHT31;54731;42.600;23.476;2023-05-10T05:48:59;7.30;77.92
67942;SHT31;54731;42.600;23.476;2023-05-10T05:51:24;7.34;77.32
67942;SHT31;54731;42.600;23.476;2023-05-10T05:53:49;7.38;77.32
67942;SHT31;54731;42.600;23.476;2023-05-10T05:56:15;7.37;77.77
67942;SHT31;54731;42.600;23.476;2023-05-10T05:58:40;7.38;77.84
67942;SHT31;54731;42.600;23.476;2023-05-10T06:01:05;7.37;77.93
67942;SHT31;54731;42.600;23.476;2023-05-10T06:03:30;7.37;77.61
67942;SHT31;54731;42.600;23.476;2023-05-10T06:05:56;7.42;77.40
67942;SHT31;54731;42.600;23.476;2023-05-10T06:08:21;7.50;77.37
67942;SHT31;54731;42.600;23.476;2023-05-10T06:10:46;7.51;77.18
67942;SHT31;54731;42.600;23.476;2023-05-10T06:13:12;7.48;76.49
67942;SHT31;54731;42.600;23.476;2023-05-10T06:15:37;7.47;77.21
67942;SHT31;54731;42.600;23.476;2023-05-10T06:18:03;7.47;76.89
67942;SHT31;54731;42.600;23.476;2023-05-10T06:20:28;7.47;77.17
67942;SHT31;54731;42.600;23.476;2023-05-10T06:22:54;7.42;77.62
67942;SHT31;54731;42.600;23.476;2023-05-10T06:25:19;7.44;77.69
67942;SHT31;54731;42.600;23.476;2023-05-10T06:27:44;7.42;77.51
67942;SHT31;54731;42.600;23.476;2023-05-10T06:30:10;7.44;77.78
67942;SHT31;54731;42.600;23.476;2023-05-10T06:32:35;7.40;78.23
67942;SHT31;54731;42.600;23.476;2023-05-10T06:35:01;7.43;78.29
67942;SHT31;54731;42.600;23.476;2023-05-10T06:37:26;7.43;78.12
67942;SHT31;54731;42.600;23.476;2023-05-10T06:39:51;7.47;77.96
67942;SHT31;54731;42.600;23.476;2023-05-10T06:42:16;7.50;77.69
67942;SHT31;54731;42.600;23.476;2023-05-10T06:44:42;7.53;76.95
67942;SHT31;54731;42.600;23.476;2023-05-10T06:47:07;7.47;76.89
67942;SHT31;54731;42.600;23.476;2023-05-10T06:49:32;7.57;76.34
67942;SHT31;54731;42.600;23.476;2023-05-10T06:51:58;7.56;76.64
67942;SHT31;54731;42.600;23.476;2023-05-10T06:54:23;7.54;76.83
67942;SHT31;54731;42.600;23.476;2023-05-10T06:56:48;7.61;76.68
67942;SHT31;54731;42.600;23.476;2023-05-10T06:59:14;7.63;75.75
67942;SHT31;54731;42.600;23.476;2023-05-10T07:01:39;7.63;76.27
67942;SHT31;54731;42.600;23.476;2023-05-10T07:04:05;7.66;76.05
67942;SHT31;54731;42.600;23.476;2023-05-10T07:06:30;7.70;75.43
67942;SHT31;54731;42.600;23.476;2023-05-10T07:08:55;7.68;75.79
67942;SHT31;54731;42.600;23.476;2023-05-10T07:11:20;7.66;76.05
67942;SHT31;54731;42.600;23.476;2023-05-10T07:13:46;7.66;76.46
67942;SHT31;54731;42.600;23.476;2023-05-10T07:16:11;7.70;76.45
67942;SHT31;54731;42.600;23.476;2023-05-10T07:18:36;7.71;76.22
67942;SHT31;54731;42.600;23.476;2023-05-10T07:21:02;7.81;76.17
67942;SHT31;54731;42.600;23.476;2023-05-10T07:23:27;7.85;75.96
67942;SHT31;54731;42.600;23.476;2023-05-10T07:25:52;7.91;75.46
67942;SHT31;54731;42.600;23.476;2023-05-10T07:28:18;7.84;75.25
67942;SHT31;54731;42.600;23.476;2023-05-10T07:30:44;7.90;75.22
67942;SHT31;54731;42.600;23.476;2023-05-10T07:33:10;7.91;74.86
67942;SHT31;54731;42.600;23.476;2023-05-10T07:35:36;7.88;74.98
67942;SHT31;54731;42.600;23.476;2023-05-10T07:38:01;7.91;74.92
67942;SHT31;54731;42.600;23.476;2023-05-10T07:40:27;7.88;74.51
67942;SHT31;54731;42.600;23.476;2023-05-10T07:42:53;7.97;75.35
67942;SHT31;54731;42.600;23.476;2023-05-10T07:45:18;7.98;74.66
67942;SHT31;54731;42.600;23.476;2023-05-10T07:47:43;7.98;73.96
67942;SHT31;54731;42.600;23.476;2023-05-10T07:50:09;7.97;74.23
67942;SHT31;54731;42.600;23.476;2023-05-10T07:52:34;7.98;74.58
67942;SHT31;54731;42.600;23.476;2023-05-10T07:54:59;7.97;74.14
67942;SHT31;54731;42.600;23.476;2023-05-10T07:57:25;8.01;74.73
67942;SHT31;54731;42.600;23.476;2023-05-10T07:59:50;8.01;74.54
67942;SHT31;54731;42.600;23.476;2023-05-10T08:02:15;7.95;74.16
67942;SHT31;54731;42.600;23.476;2023-05-10T08:04:41;7.95;75.90
67942;SHT31;54731;42.600;23.476;2023-05-10T08:07:06;7.99;75.53
67942;SHT31;54731;42.600;23.476;2023-05-10T08:09:31;8.03;75.47
67942;SHT31;54731;42.600;23.476;2023-05-10T08:11:56;7.99;75.48
67942;SHT31;54731;42.600;23.476;2023-05-10T08:14:22;7.94;76.07
67942;SHT31;54731;42.600;23.476;2023-05-10T08:16:47;8.03;75.95
67942;SHT31;54731;42.600;23.476;2023-05-10T08:19:12;7.97;76.10
67942;SHT31;54731;42.600;23.476;2023-05-10T08:21:38;8.02;75.90
67942;SHT31;54731;42.600;23.476;2023-05-10T08:24:03;8.05;76.03
67942;SHT31;54731;42.600;23.476;2023-05-10T08:26:28;8.11;75.98
67942;SHT31;54731;42.600;23.476;2023-05-10T08:28:54;8.18;75.62
67942;SHT31;54731;42.600;23.476;2023-05-10T08:31:19;8.13;75.36
67942;SHT31;54731;42.600;23.476;2023-05-10T08:33:44;8.21;75.05
67942;SHT31;54731;42.600;23.476;2023-05-10T08:36:10;8.21;74.63
67942;SHT31;54731;42.600;23.476;2023-05-10T08:38:35;8.24;74.96
67942;SHT31;54731;42.600;23.476;2023-05-10T08:41:02;8.26;74.68
67942;SHT31;54731;42.600;23.476;2023-05-10T08:43:28;8.28;74.42
67942;SHT31;54731;42.600;23.476;2023-05-10T08:45:54;8.32;74.27
67942;SHT31;54731;42.600;23.476;2023-05-10T08:48:21;8.41;73.89
67942;SHT31;54731;42.600;23.476;2023-05-10T08:50:48;8.43;73.64
67942;SHT31;54731;42.600;23.476;2023-05-10T09:05:07;8.50;73.87
67942;SHT31;54731;42.600;23.476;2023-05-10T09:07:32;8.55;73.60
67942;SHT31;54731;42.600;23.476;2023-05-10T09:09:58;8.60;73.89
67942;SHT31;54731;42.600;23.476;2023-05-10T09:12:23;8.60;74.10
67942;SHT31;54731;42.600;23.476;2023-05-10T09:14:50;8.67;74.23
67942;SHT31;54731;42.600;23.476;2023-05-10T09:17:17;8.77;73.59
67942;SHT31;54731;42.600;23.476;2023-05-10T09:19:42;8.84;73.84
67942;SHT31;54731;42.600;23.476;2023-05-10T09:22:08;8.88;73.55
67942;SHT31;54731;42.600;23.476;2023-05-10T09:24:33;8.96;73.46
67942;SHT31;54731;42.600;23.476;2023-05-10T09:26:58;9.01;73.77
67942;SHT31;54731;42.600;23.476;2023-05-10T09:29:24;9.03;73.63
67942;SHT31;54731;42.600;23.476;2023-05-10T09:31:52;9.10;73.63
67942;SHT31;54731;42.600;23.476;2023-05-10T09:34:18;9.23;73.68
67942;SHT31;54731;42.600;23.476;2023-05-10T09:36:54;9.28;71.99
67942;SHT31;54731;42.600;23.476;2023-05-10T09:39:20;9.32;72.55
67942;SHT31;54731;42.600;23.476;2023-05-10T09:41:46;9.37;72.85
67942;SHT31;54731;42.600;23.476;2023-05-10T09:44:16;9.44;72.36
67942;SHT31;54731;42.600;23.476;2023-05-10T09:46:42;9.39;72.18
67942;SHT31;54731;42.600;23.476;2023-05-10T09:49:07;9.47;71.91
67942;SHT31;54731;42.600;23.476;2023-05-10T09:51:34;9.58;71.71
67942;SHT31;54731;42.600;23.476;2023-05-10T09:54:16;9.65;71.21
67942;SHT31;54731;42.600;23.476;2023-05-10T09:56:41;9.65;71.44
67942;SHT31;54731;42.600;23.476;2023-05-10T09:59:10;9.72;70.97
67942;SHT31;54731;42.600;23.476;2023-05-10T10:01:37;9.77;71.82
67942;SHT31;54731;42.600;23.476;2023-05-10T10:04:06;9.88;70.90
67942;SHT31;54731;42.600;23.476;2023-05-10T10:06:38;9.98;70.24
67942;SHT31;54731;42.600;23.476;2023-05-10T10:09:04;9.98;69.91
67942;SHT31;54731;42.600;23.476;2023-05-10T10:11:30;10.05;70.06
67942;SHT31;54731;42.600;23.476;2023-05-10T10:13:56;10.09;69.39
67942;SHT31;54731;42.600;23.476;2023-05-10T10:16:21;10.17;69.54
67942;SHT31;54731;42.600;23.476;2023-05-10T10:18:47;10.19;68.60
67942;SHT31;54731;42.600;23.476;2023-05-10T10:21:13;10.24;68.82
67942;SHT31;54731;42.600;23.476;2023-05-10T10:23:40;10.34;68.54
67942;SHT31;54731;42.600;23.476;2023-05-10T10:26:05;10.52;68.53
67942;SHT31;54731;42.600;23.476;2023-05-10T10:31:36;10.73;68.07
67942;SHT31;54731;42.600;23.476;2023-05-10T10:34:08;10.66;67.58
67942;SHT31;54731;42.600;23.476;2023-05-10T10:36:43;10.61;67.96
67942;SHT31;54731;42.600;23.476;2023-05-10T10:39:10;10.74;68.23
67942;SHT31;54731;42.600;23.476;2023-05-10T10:41:40;10.80;67.60
67942;SHT31;54731;42.600;23.476;2023-05-10T10:44:23;10.84;67.17
67942;SHT31;54731;42.600;23.476;2023-05-10T10:52:27;10.81;67.47
67942;SHT31;54731;42.600;23.476;2023-05-10T10:57:22;10.88;67.53
67942;SHT31;54731;42.600;23.476;2023-05-10T10:59:48;10.87;67.64
67942;SHT31;54731;42.600;23.476;2023-05-10T11:10:48;10.90;66.94
67942;SHT31;54731;42.600;23.476;2023-05-10T11:13:14;10.87;67.43
67942;SHT31;54731;42.600;23.476;2023-05-10T11:15:40;10.90;67.08
67942;SHT31;54731;42.600;23.476;2023-05-10T11:18:29;10.83;67.41
67942;SHT31;54731;42.600;23.476;2023-05-10T11:20:57;10.97;66.96
67942;SHT31;54731;42.600;23.476;2023-05-10T11:23:23;11.00;67.00
67942;SHT31;54731;42.600;23.476;2023-05-10T11:25:49;10.91;67.07
67942;SHT31;54731;42.600;23.476;2023-05-10T11:28:17;11.03;67.12
67942;SHT31;54731;42.600;23.476;2023-05-10T11:30:44;11.10;67.02
67942;SHT31;54731;42.600;23.476;2023-05-10T11:33:14;11.12;66.96
67942;SHT31;54731;42.600;23.476;2023-05-10T11:35:40;11.15;66.57
67942;SHT31;54731;42.600;23.476;2023-05-10T11:38:13;11.22;66.76
67942;SHT31;54731;42.600;23.476;2023-05-10T11:40:39;11.15;66.59
67942;SHT31;54731;42.600;23.476;2023-05-10T11:43:05;11.00;66.66
67942;SHT31;54731;42.600;23.476;2023-05-10T11:45:33;10.94;66.46
67942;SHT31;54731;42.600;23.476;2023-05-10T11:47:59;11.10;66.88
67942;SHT31;54731;42.600;23.476;2023-05-10T11:50:26;11.18;66.37
67942;SHT31;54731;42.600;23.476;2023-05-10T11:52:55;11.31;66.49
67942;SHT31;54731;42.600;23.476;2023-05-10T11:55:21;11.22;66.65
67942;SHT31;54731;42.600;23.476;2023-05-10T11:57:47;11.28;66.88
67942;SHT31;54731;42.600;23.476;2023-05-10T12:00:13;11.21;66.91
67942;SHT31;54731;42.600;23.476;2023-05-10T12:02:39;11.22;66.94
67942;SHT31;54731;42.600;23.476;2023-05-10T12:05:05;11.35;66.79
67942;SHT31;54731;42.600;23.476;2023-05-10T12:07:31;11.48;65.55
67942;SHT31;54731;42.600;23.476;2023-05-10T12:10:09;11.52;65.51
67942;SHT31;54731;42.600;23.476;2023-05-10T12:12:39;11.54;65.35
67942;SHT31;54731;42.600;23.476;2023-05-10T12:15:06;11.48;66.23
67942;SHT31;54731;42.600;23.476;2023-05-10T12:17:37;11.35;65.95
67942;SHT31;54731;42.600;23.476;2023-05-10T12:20:20;11.40;66.59
67942;SHT31;54731;42.600;23.476;2023-05-10T12:22:53;11.43;65.94
67942;SHT31;54731;42.600;23.476;2023-05-10T12:25:20;11.24;66.26
67942;SHT31;54731;42.600;23.476;2023-05-10T12:27:54;11.28;66.67
67942;SHT31;54731;42.600;23.476;2023-05-10T12:30:25;11.42;66.56
67942;SHT31;54731;42.600;23.476;2023-05-10T12:32:51;11.38;66.73
67942;SHT31;54731;42.600;23.476;2023-05-10T12:35:17;11.43;66.57
67942;SHT31;54731;42.600;23.476;2023-05-10T12:37:43;11.45;66.56
67942;SHT31;54731;42.600;23.476;2023-05-10T12:40:10;11.40;66.35
67942;SHT31;54731;42.600;23.476;2023-05-10T12:42:35;11.49;65.98
67942;SHT31;54731;42.600;23.476;2023-05-10T12:45:01;11.48;66.52
67942;SHT31;54731;42.600;23.476;2023-05-10T12:47:26;11.40;67.31
67942;SHT31;54731;42.600;23.476;2023-05-10T12:49:51;11.45;66.52
67942;SHT31;54731;42.600;23.476;2023-05-10T12:52:17;11.55;66.63
67942;SHT31;54731;42.600;23.476;2023-05-10T12:54:42;11.45;65.85
67942;SHT31;54731;42.600;23.476;2023-05-10T12:57:07;11.48;65.86
67942;SHT31;54731;42.600;23.476;2023-05-10T12:59:33;11.52;65.98
67942;SHT31;54731;42.600;23.476;2023-05-10T13:01:58;11.48;66.54
67942;SHT31;54731;42.600;23.476;2023-05-10T13:04:23;11.49;66.70
67942;SHT31;54731;42.600;23.476;2023-05-10T13:06:48;11.54;66.48
67942;SHT31;54731;42.600;23.476;2023-05-10T13:09:14;11.62;66.36
67942;SHT31;54731;42.600;23.476;2023-05-10T13:11:39;11.63;66.04
67942;SHT31;54731;42.600;23.476;2023-05-10T13:14:04;11.54;66.28
67942;SHT31;54731;42.600;23.476;2023-05-10T13:16:30;11.61;66.27
67942;SHT31;54731;42.600;23.476;2023-05-10T13:18:55;11.61;66.09
67942;SHT31;54731;42.600;23.476;2023-05-10T13:21:21;11.59;65.85
67942;SHT31;54731;42.600;23.476;2023-05-10T13:23:46;11.57;65.86
67942;SHT31;54731;42.600;23.476;2023-05-10T13:26:11;11.54;66.34
67942;SHT31;54731;42.600;23.476;2023-05-10T13:28:37;11.52;66.26
67942;SHT31;54731;42.600;23.476;2023-05-10T13:31:02;11.39;66.15
67942;SHT31;54731;42.600;23.476;2023-05-10T13:33:27;11.40;66.04
67942;SHT31;54731;42.600;23.476;2023-05-10T13:35:52;11.46;66.52
67942;SHT31;54731;42.600;23.476;2023-05-10T13:38:18;11.42;66.20
67942;SHT31;54731;42.600;23.476;2023-05-10T13:40:43;11.46;66.78
67942;SHT31;54731;42.600;23.476;2023-05-10T13:43:08;11.45;66.67
67942;SHT31;54731;42.600;23.476;2023-05-10T13:45:34;11.59;67.40
67942;SHT31;54731;42.600;23.476;2023-05-10T13:47:59;11.54;66.40
67942;SHT31;54731;42.600;23.476;2023-05-10T13:50:24;11.54;65.98
67942;SHT31;54731;42.600;23.476;2023-05-10T13:52:49;11.57;66.06
67942;SHT31;54731;42.600;23.476;2023-05-10T13:55:15;11.39;67.17
67942;SHT31;54731;42.600;23.476;2023-05-10T13:57:40;11.34;67.58
67942;SHT31;54731;42.600;23.476;2023-05-10T14:00:06;11.31;67.76
67942;SHT31;54731;42.600;23.476;2023-05-10T14:02:31;11.24;67.62
67942;SHT31;54731;42.600;23.476;2023-05-10T14:04:57;11.28;68.04
67942;SHT31;54731;42.600;23.476;2023-05-10T14:07:22;11.39;67.80
67942;SHT31;54731;42.600;23.476;2023-05-10T14:09:47;11.32;67.97
67942;SHT31;54731;42.600;23.476;2023-05-10T14:12:12;11.15;68.20
67942;SHT31;54731;42.600;23.476;2023-05-10T14:14:38;11.31;68.29
67942;SHT31;54731;42.600;23.476;2023-05-10T14:17:03;11.28;68.13
67942;SHT31;54731;42.600;23.476;2023-05-10T14:19:28;11.32;67.99
67942;SHT31;54731;42.600;23.476;2023-05-10T14:21:54;11.29;68.04
67942;SHT31;54731;42.600;23.476;2023-05-10T14:24:19;11.38;67.61
67942;SHT31;54731;42.600;23.476;2023-05-10T14:26:44;11.38;67.64
67942;SHT31;54731;42.600;23.476;2023-05-10T14:29:10;11.39;67.27
67942;SHT31;54731;42.600;23.476;2023-05-10T14:31:35;11.31;67.85
67942;SHT31;54731;42.600;23.476;2023-05-10T14:34:00;11.05;68.12
67942;SHT31;54731;42.600;23.476;2023-05-10T14:36:25;11.05;68.52
67942;SHT31;54731;42.600;23.476;2023-05-10T14:38:51;11.05;69.35
67942;SHT31;54731;42.600;23.476;2023-05-10T14:41:16;11.11;68.40
67942;SHT31;54731;42.600;23.476;2023-05-10T14:43:41;11.24;68.52
67942;SHT31;54731;42.600;23.476;2023-05-10T14:46:06;11.40;68.16
67942;SHT31;54731;42.600;23.476;2023-05-10T14:48:32;11.51;66.96
67942;SHT31;54731;42.600;23.476;2023-05-10T14:50:57;11.55;67.00
67942;SHT31;54731;42.600;23.476;2023-05-10T14:53:22;11.59;67.03
67942;SHT31;54731;42.600;23.476;2023-05-10T14:55:48;11.61;66.45
67942;SHT31;54731;42.600;23.476;2023-05-10T14:58:13;11.66;66.09
67942;SHT31;54731;42.600;23.476;2023-05-10T15:00:40;11.73;66.01
67942;SHT31;54731;42.600;23.476;2023-05-10T15:03:05;11.72;65.86
67942;SHT31;54731;42.600;23.476;2023-05-10T15:05:31;11.65;65.90
67942;SHT31;54731;42.600;23.476;2023-05-10T15:07:56;11.66;66.01
67942;SHT31;54731;42.600;23.476;2023-05-10T15:10:21;11.59;66.75
67942;SHT31;54731;42.600;23.476;2023-05-10T15:12:47;11.62;66.56
67942;SHT31;54731;42.600;23.476;2023-05-10T15:15:12;11.57;67.04
67942;SHT31;54731;42.600;23.476;2023-05-10T15:17:37;11.58;66.44
67942;SHT31;54731;42.600;23.476;2023-05-10T15:20:03;11.55;66.54
67942;SHT31;54731;42.600;23.476;2023-05-10T15:22:29;11.69;66.75
67942;SHT31;54731;42.600;23.476;2023-05-10T15:24:54;11.72;66.48
67942;SHT31;54731;42.600;23.476;2023-05-10T15:27:19;11.68;66.52
67942;SHT31;54731;42.600;23.476;2023-05-10T15:29:45;11.70;66.77
67942;SHT31;54731;42.600;23.476;2023-05-10T15:32:10;11.73;66.30
67942;SHT31;54731;42.600;23.476;2023-05-10T15:34:35;11.70;65.16
67942;SHT31;54731;42.600;23.476;2023-05-10T15:37:01;11.73;66.26
67942;SHT31;54731;42.600;23.476;2023-05-10T15:39:26;11.65;65.18
67942;SHT31;54731;42.600;23.476;2023-05-10T15:41:51;11.62;65.69
67942;SHT31;54731;42.600;23.476;2023-05-10T15:44:17;11.68;65.94
67942;SHT31;54731;42.600;23.476;2023-05-10T15:46:42;11.70;65.00
67942;SHT31;54731;42.600;23.476;2023-05-10T15:49:07;11.59;64.76
67942;SHT31;54731;42.600;23.476;2023-05-10T15:51:32;11.40;65.05
67942;SHT31;54731;42.600;23.476;2023-05-10T15:53:58;11.43;66.04
67942;SHT31;54731;42.600;23.476;2023-05-10T15:56:23;11.21;66.84
67942;SHT31;54731;42.600;23.476;2023-05-10T15:58:49;11.25;66.72
67942;SHT31;54731;42.600;23.476;2023-05-10T16:01:14;11.05;67.24
67942;SHT31;54731;42.600;23.476;2023-05-10T16:03:39;11.11;67.60
67942;SHT31;54731;42.600;23.476;2023-05-10T16:06:05;11.08;67.31